Time;durP1;ratioP1;P1;durP2;ratioP2;P2;SDS_P1;SDS_P2;PMS_P1;PMS_P2;Temp;Humidity;BMP_temperature;BMP_pressure;BME280_temperature;BME280_humidity;BME280_pressure;Samples;Min_cycle;Max_cycle;Signal;HPM_P1;HPM_P2
2023/08/11 00:01:24;;;;;;;4.75;3.03;;;12.90;99.90;;;;;;10165957;29;20275;-86
2023/08/11 00:06:27;;;;;;;4.30;3.65;;;12.90;99.90;;;;;;10146912;29;20294;-86
2023/08/11 00:11:30;;;;;;;5.22;2.95;;;12.90;99.90;;;;;;10170295;29;20623;-86
2023/08/11 00:16:32;;;;;;;3.38;3.00;;;12.80;99.90;;;;;;10173555;29;20235;-86
2023/08/11 00:21:35;;;;;;;7.47;3.83;;;12.70;99.90;;;;;;10172613;29;20259;-86
2023/08/11 00:26:37;;;;;;;4.43;4.03;;;12.70;99.90;;;;;;10171770;29;20263;-86
2023/08/11 00:31:40;;;;;;;3.83;3.38;;;12.70;99.90;;;;;;10172717;29;20242;-86
2023/08/11 00:36:42;;;;;;;4.93;3.13;;;12.70;99.90;;;;;;10168504;29;20247;-86
2023/08/11 00:41:45;;;;;;;5.53;3.22;;;12.80;99.90;;;;;;10154492;29;20315;-86
2023/08/11 00:46:48;;;;;;;3.08;2.80;;;12.60;99.90;;;;;;10170505;29;20765;-86
2023/08/11 00:51:51;;;;;;;4.07;3.63;;;12.50;99.90;;;;;;10170734;29;20327;-86
2023/08/11 00:56:55;;;;;;;4.95;3.15;;;;;;;;;;10169497;29;20717;-86
2023/08/11 01:01:59;;;;;;;5.50;3.83;;;12.30;99.90;;;;;;10171766;29;20255;-86
2023/08/11 01:07:31;;;;;;;3.95;3.45;;;12.40;99.90;;;;;;10169454;29;20276;-85
2023/08/11 01:12:59;;;;;;;4.20;3.38;;;12.40;99.90;;;;;;10168820;29;20212;-86
2023/08/11 01:18:04;;;;;;;5.65;3.15;;;12.30;99.90;;;;;;10171611;29;20620;-86
2023/08/11 01:23:08;;;;;;;3.50;3.20;;;12.10;99.90;;;;;;10166863;29;20267;-86
2023/08/11 01:28:14;;;;;;;3.70;3.25;;;12.30;99.90;;;;;;10170382;29;20590;-86
2023/08/11 01:33:16;;;;;;;3.38;3.08;;;12.20;99.90;;;;;;10167819;29;20271;-86
2023/08/11 01:38:20;;;;;;;4.85;3.33;;;12.00;99.90;;;;;;10170021;29;20265;-85
2023/08/11 01:43:23;;;;;;;6.22;3.03;;;11.80;99.90;;;;;;10168384;29;20320;-85
2023/08/11 01:48:27;;;;;;;3.60;3.30;;;11.80;99.90;;;;;;10166891;29;20639;-86
2023/08/11 01:53:30;;;;;;;3.83;3.22;;;11.70;99.90;;;;;;10167589;29;20667;-86
2023/08/11 01:58:34;;;;;;;5.97;3.17;;;11.60;99.90;;;;;;10152392;29;20614;-86
2023/08/11 02:03:37;;;;;;;4.68;3.20;;;11.50;99.90;;;;;;10154881;29;20311;-86
2023/08/11 02:08:40;;;;;;;3.00;2.53;;;11.50;99.90;;;;;;10144401;29;20676;-86
2023/08/11 02:13:42;;;;;;;4.90;3.35;;;11.40;99.90;;;;;;10128361;29;20251;-86
2023/08/11 02:18:45;;;;;;;3.58;3.28;;;11.30;99.90;;;;;;10134098;29;20614;-86
2023/08/11 02:23:48;;;;;;;6.33;2.90;;;11.50;99.90;;;;;;10144432;29;20263;-86
2023/08/11 02:28:50;;;;;;;2.90;2.70;;;11.40;99.90;;;;;;10134760;29;20232;-86
2023/08/11 02:33:53;;;;;;;4.72;3.80;;;11.30;99.90;;;;;;10106295;29;20304;-86
2023/08/11 02:38:56;;;;;;;5.35;3.25;;;11.40;99.90;;;;;;10108683;29;20296;-86
2023/08/11 02:43:58;;;;;;;4.30;3.17;;;11.30;99.90;;;;;;10127551;29;20259;-86
2023/08/11 02:49:02;;;;;;;5.90;2.92;;;11.30;99.90;;;;;;10111807;29;20216;-86
2023/08/11 02:54:05;;;;;;;6.53;3.23;;;11.20;99.90;;;;;;10151948;29;20271;-86
2023/08/11 02:59:07;;;;;;;7.22;2.92;;;11.10;99.90;;;;;;10113138;29;20395;-86
2023/08/11 03:04:10;;;;;;;3.22;2.92;;;11.10;99.90;;;;;;10128444;29;20263;-86
2023/08/11 03:09:12;;;;;;;3.33;3.03;;;10.90;99.90;;;;;;10111289;29;20299;-86
2023/08/11 03:14:15;;;;;;;6.27;3.03;;;10.90;99.90;;;;;;10127641;29;20299;-86
2023/08/11 03:19:17;;;;;;;4.15;3.38;;;11.00;99.90;;;;;;10103984;29;20240;-86
2023/08/11 03:24:20;;;;;;;3.70;3.30;;;10.90;99.90;;;;;;10103587;29;20261;-86
2023/08/11 03:29:23;;;;;;;4.25;3.20;;;11.00;99.90;;;;;;10102921;29;20719;-86
2023/08/11 03:34:26;;;;;;;4.88;3.30;;;11.00;99.90;;;;;;10103200;29;20244;-86
2023/08/11 03:39:30;;;;;;;5.63;3.70;;;10.90;99.90;;;;;;10103155;29;20624;-86
2023/08/11 03:44:34;;;;;;;5.50;3.13;;;11.00;99.90;;;;;;10091307;29;20347;-86
2023/08/11 03:49:38;;;;;;;4.10;3.80;;;10.90;99.90;;;;;;10132176;29;20688;-86
2023/08/11 03:54:40;;;;;;;3.67;3.20;;;10.90;99.90;;;;;;10130847;29;20271;-86
2023/08/11 03:59:50;;;;;;;3.90;2.92;;;10.90;99.90;;;;;;10118111;29;20247;-86
2023/08/11 04:04:55;;;;;;;4.60;3.13;;;10.90;99.90;;;;;;10116227;29;20292;-86
2023/08/11 04:09:58;;;;;;;4.73;3.37;;;10.80;99.90;;;;;;10117160;29;20239;-86
2023/08/11 04:15:00;;;;;;;4.60;3.45;;;10.80;99.90;;;;;;10132597;29;20268;-86
2023/08/11 04:20:12;;;;;;;3.58;3.15;;;10.90;99.90;;;;;;10132502;29;20310;-86
2023/08/11 04:25:16;;;;;;;5.90;3.60;;;10.80;99.90;;;;;;10132505;29;20260;-86
2023/08/11 04:30:21;;;;;;;4.17;3.13;;;11.00;99.90;;;;;;10116839;29;20235;-86
2023/08/11 04:35:25;;;;;;;4.47;3.22;;;11.20;99.90;;;;;;10131906;29;20239;-86
2023/08/11 04:40:27;;;;;;;4.55;3.67;;;11.30;99.90;;;;;;10114551;29;20303;-86
2023/08/11 04:45:31;;;;;;;4.95;3.60;;;11.50;99.90;;;;;;10131920;29;20742;-86
2023/08/11 04:50:34;;;;;;;4.67;3.50;;;11.70;99.90;;;;;;10135194;29;20283;-87
2023/08/11 04:55:39;;;;;;;6.05;3.90;;;11.90;99.90;;;;;;10167601;29;20258;-86
2023/08/11 05:00:43;;;;;;;6.82;4.43;;;12.10;99.90;;;;;;10167812;29;20272;-86
2023/08/11 06:11:52;;;;;;;7.72;3.92;;;13.80;99.90;;;;;;10621640;27;20565;-84
2023/08/11 06:16:55;;;;;;;4.43;3.30;;;14.30;99.90;;;;;;10652417;27;20674;-84
2023/08/11 06:21:58;;;;;;;14.90;4.35;;;14.50;99.90;;;;;;10650905;27;20301;-84
2023/08/11 06:27:00;;;;;;;5.93;4.25;;;14.70;99.90;;;;;;10644441;27;20294;-84
2023/08/11 06:32:03;;;;;;;6.97;4.70;;;14.90;99.90;;;;;;10650290;27;20236;-84
2023/08/11 06:37:05;;;;;;;7.38;4.18;;;15.20;99.90;;;;;;10653050;27;20273;-85
2023/08/11 06:42:09;;;;;;;5.65;4.55;;;15.60;99.90;;;;;;10652885;27;20220;-85
2023/08/11 06:47:31;;;;;;;2.28;2.08;;;16.00;99.90;;;;;;10598221;27;20227;-86
2023/08/11 06:52:33;;;;;;;2.95;1.73;;;16.30;99.90;;;;;;10577063;27;20236;-84
2023/08/11 06:57:36;;;;;;;3.22;2.92;;;16.60;99.90;;;;;;10567301;28;20703;-83
2023/08/11 07:02:39;;;;;;;8.50;3.22;;;16.90;99.90;;;;;;10566969;28;20226;-83
2023/08/11 07:07:42;;;;;;;5.07;2.30;;;17.20;99.90;;;;;;10565174;28;20233;-83
2023/08/11 07:12:44;;;;;;;7.82;3.75;;;17.60;99.90;;;;;;10539510;28;20740;-83
2023/08/11 07:17:47;;;;;;;8.63;3.28;;;17.90;99.90;;;;;;10539331;28;20256;-83
2023/08/11 07:22:49;;;;;;;12.48;2.70;;;18.10;99.90;;;;;;10538883;28;20237;-83
2023/08/11 07:27:52;;;;;;;2.70;2.40;;;18.40;99.90;;;;;;10539014;28;20254;-84
2023/08/11 07:32:54;;;;;;;1.98;1.77;;;18.60;99.90;;;;;;10576347;27;20690;-82
2023/08/11 07:37:57;;;;;;;3.55;2.75;;;18.90;99.90;;;;;;10562141;28;20297;-83
2023/08/11 07:42:59;;;;;;;7.22;2.70;;;19.00;99.90;;;;;;10583563;27;20231;-83
2023/08/11 07:48:02;;;;;;;4.53;2.60;;;19.30;98.10;;;;;;10599654;27;20285;-84
2023/08/11 07:53:05;;;;;;;2.80;2.60;;;19.50;97.50;;;;;;10578955;28;20674;-83
2023/08/11 07:58:08;;;;;;;3.63;2.35;;;19.70;94.50;;;;;;10560579;28;20266;-83
2023/08/11 08:03:10;;;;;;;9.77;2.92;;;19.90;94.50;;;;;;10576781;28;20228;-86
2023/08/11 08:08:13;;;;;;;8.27;2.53;;;20.00;93.20;;;;;;10578953;28;20718;-84
2023/08/11 08:13:17;;;;;;;2.88;2.00;;;19.90;94.40;;;;;;10590612;27;20240;-84
2023/08/11 08:18:20;;;;;;;7.32;2.95;;;19.90;96.30;;;;;;10607874;27;20687;-84
2023/08/11 08:23:22;;;;;;;2.47;1.75;;;19.80;92.00;;;;;;10552656;28;20221;-83
2023/08/11 08:28:25;;;;;;;2.78;2.03;;;19.80;94.70;;;;;;10557248;28;20236;-83
2023/08/11 08:33:28;;;;;;;4.35;2.10;;;20.00;94.90;;;;;;10558986;28;20189;-82
2023/08/11 08:38:31;;;;;;;3.92;1.73;;;20.10;91.60;;;;;;10595393;27;20770;-84
2023/08/11 08:43:34;;;;;;;4.10;2.35;;;20.20;95.80;;;;;;10618711;27;20232;-82
2023/08/11 08:48:46;;;;;;;2.30;1.90;;;20.20;92.90;;;;;;10586786;27;20629;-82
2023/08/11 08:53:49;;;;;;;2.00;1.65;;;20.30;90.50;;;;;;10583118;27;20232;-82
2023/08/11 08:58:51;;;;;;;4.43;2.30;;;20.40;93.30;;;;;;10580659;27;20240;-82
2023/08/11 09:03:55;;;;;;;2.72;1.60;;;20.50;76.10;;;;;;10534705;28;20613;-82
2023/08/11 09:08:59;;;;;;;5.30;2.17;;;20.70;80.60;;;;;;10572359;28;20730;-84
2023/08/11 09:14:06;;;;;;;2.90;1.95;;;20.80;74.20;;;;;;10575356;28;20675;-85
2023/08/11 09:19:12;;;;;;;3.00;1.98;;;20.90;89.60;;;;;;10588853;27;20264;-84
2023/08/11 09:24:15;;;;;;;3.33;1.77;;;20.90;84.80;;;;;;10619658;27;20285;-87
2023/08/11 09:29:19;;;;;;;1.98;1.65;;;20.80;82.20;;;;;;10601584;27;20250;-87
2023/08/11 09:34:22;;;;;;;4.57;2.10;;;20.70;77.40;;;;;;10579089;28;20219;-86
2023/08/11 09:39:28;;;;;;;6.90;1.77;;;20.60;80.70;;;;;;10577009;28;20313;-86
2023/08/11 09:44:31;;;;;;;5.75;2.00;;;20.60;63.30;;;;;;10541067;28;20604;-86
2023/08/11 09:49:33;;;;;;;6.22;1.98;;;20.60;56.70;;;;;;10615407;27;20288;-86
2023/08/11 09:54:36;;;;;;;3.35;1.85;;;20.70;66.40;;;;;;10617799;27;20639;-82
2023/08/11 09:59:40;;;;;;;3.28;1.92;;;20.90;58.40;;;;;;10564133;28;20256;-81
2023/08/11 10:04:48;;;;;;;3.22;2.35;;;21.10;64.90;;;;;;10554274;28;20216;-82
2023/08/11 10:09:52;;;;;;;2.30;1.90;;;21.50;67.50;;;;;;10604821;28;20225;-81
2023/08/11 10:14:55;;;;;;;3.70;2.03;;;21.40;60.80;;;;;;10579449;28;20196;-82
2023/08/11 10:20:04;;;;;;;6.45;2.08;;;21.40;55.30;;;;;;10578581;28;20710;-83
2023/08/11 10:25:07;;;;;;;2.35;1.92;;;21.40;53.40;;;;;;10616532;28;20227;-83
2023/08/11 10:30:13;;;;;;;6.68;2.33;;;21.60;59.10;;;;;;10570219;28;20258;-82
2023/08/11 10:35:24;;;;;;;3.45;2.17;;;21.70;58.40;;;;;;10594403;28;20200;-82
2023/08/11 10:40:48;;;;;;;2.25;1.77;;;21.80;65.50;;;;;;10599892;27;20296;-82
2023/08/11 10:45:53;;;;;;;2.95;1.85;;;21.90;78.70;;;;;;10587200;27;20227;-84
2023/08/11 10:50:56;;;;;;;1.85;1.50;;;22.00;54.00;;;;;;10572524;27;20233;-83
2023/08/11 10:56:00;;;;;;;2.92;2.38;;;22.20;60.30;;;;;;10528628;28;20228;-83
2023/08/11 11:01:03;;;;;;;1.83;1.73;;;22.20;58.50;;;;;;10580934;28;20257;-83
2023/08/11 11:06:06;;;;;;;3.55;1.85;;;22.50;60.00;;;;;;10550086;28;20258;-83
2023/08/11 11:11:09;;;;;;;3.17;2.30;;;22.60;42.70;;;;;;10576799;28;20260;-82
2023/08/11 11:16:12;;;;;;;4.30;1.88;;;22.70;54.80;;;;;;10599791;27;20204;-83
2023/08/11 11:21:16;;;;;;;2.45;2.17;;;22.50;45.60;;;;;;10579987;28;20858;-82
2023/08/11 11:26:30;;;;;;;6.40;1.98;;;22.50;64.20;;;;;;10577718;28;21320;-84
2023/08/11 11:31:39;;;;;;;3.30;2.03;;;22.10;61.50;;;;;;10601630;27;20241;-85
2023/08/11 11:36:42;;;;;;;3.03;2.22;;;22.00;56.10;;;;;;10559979;28;20281;-86
2023/08/11 11:41:45;;;;;;;3.78;2.60;;;22.00;51.40;;;;;;10574504;27;20247;-86
2023/08/11 11:46:47;;;;;;;2.47;2.03;;;22.00;68.10;;;;;;10618087;27;20658;-86
2023/08/11 11:51:50;;;;;;;2.72;1.60;;;21.90;53.20;;;;;;10620570;27;20236;-84
2023/08/11 11:56:53;;;;;;;3.13;1.60;;;22.00;43.20;;;;;;10608938;27;20228;-86
2023/08/11 12:02:06;;;;;;;3.75;1.80;;;22.20;48.20;;;;;;10578370;28;20645;-84
2023/08/11 12:07:09;;;;;;;5.43;1.70;;;22.30;49.10;;;;;;10600917;27;20232;-85
2023/08/11 12:12:12;;;;;;;2.63;2.15;;;22.10;43.10;;;;;;10613104;27;20229;-84
2023/08/11 12:17:15;;;;;;;3.60;2.60;;;22.00;65.80;;;;;;10577303;28;20228;-83
2023/08/11 12:22:17;;;;;;;11.63;3.05;;;21.80;68.60;;;;;;10577230;28;20281;-85
2023/08/11 12:27:20;;;;;;;7.50;1.95;;;21.60;63.40;;;;;;10612952;27;20644;-81
2023/08/11 12:32:22;;;;;;;4.22;2.30;;;21.40;56.50;;;;;;10569064;27;20299;-82
2023/08/11 12:37:26;;;;;;;3.17;2.17;;;21.30;52.50;;;;;;10535400;28;20237;-82
2023/08/11 12:42:28;;;;;;;4.30;1.52;;;21.50;53.00;;;;;;10545749;28;20252;-82
2023/08/11 12:47:31;;;;;;;5.30;2.28;;;21.70;57.70;;;;;;10573748;28;20865;-82
2023/08/11 12:52:33;;;;;;;7.90;2.65;;;21.70;64.00;;;;;;10615593;27;20289;-82
2023/08/11 12:57:36;;;;;;;5.07;2.08;;;21.90;42.80;;;;;;10599586;27;20196;-82
2023/08/11 13:02:39;;;;;;;7.22;1.90;;;22.20;35.80;;;;;;10600081;27;20636;-82
2023/08/11 13:07:42;;;;;;;4.68;2.03;;;22.40;37.40;;;;;;10586939;27;20304;-83
2023/08/11 13:12:45;;;;;;;5.13;2.38;;;22.70;35.30;;;;;;10574463;28;20200;-84
2023/08/11 13:17:47;;;;;;;3.55;1.75;;;22.80;32.40;;;;;;10549965;28;20597;-83
2023/08/11 13:22:51;;;;;;;7.20;1.30;;;23.00;31.50;;;;;;10557259;28;20240;-83
2023/08/11 13:27:53;;;;;;;6.57;1.67;;;23.00;32.00;;;;;;10559749;28;20217;-83
2023/08/11 13:32:57;;;;;;;2.95;1.77;;;23.10;38.40;;;;;;10576563;28;20201;-83
2023/08/11 13:38:00;;;;;;;4.32;2.30;;;23.30;35.90;;;;;;10558410;28;20193;-83
2023/08/11 13:43:04;;;;;;;3.70;2.88;;;23.30;40.00;;;;;;10576394;28;20252;-83
2023/08/11 13:48:06;;;;;;;1014.03;666.45;;;23.30;43.90;;;;;;10575940;28;20220;-83
2023/08/11 13:53:11;;;;;;;16.52;12.07;;;23.20;44.30;;;;;;10576230;28;20223;-83
2023/08/11 13:58:13;;;;;;;2.97;1.55;;;23.00;32.00;;;;;;10575559;28;20232;-83
2023/08/11 14:03:16;;;;;;;3.28;2.80;;;22.80;32.00;;;;;;10574474;27;20204;-82
2023/08/11 14:08:19;;;;;;;6.38;2.63;;;23.00;32.70;;;;;;10614599;27;20257;-83
2023/08/11 14:13:27;;;;;;;4.35;2.47;;;23.20;33.40;;;;;;10570298;28;20228;-84
2023/08/11 14:18:30;;;;;;;3.47;1.83;;;23.30;32.30;;;;;;10574647;28;20273;-84
2023/08/11 14:23:33;;;;;;;3.47;1.70;;;23.40;28.70;;;;;;10582557;28;20220;-84
2023/08/11 14:28:35;;;;;;;2.85;1.83;;;23.50;26.90;;;;;;10616121;27;20220;-84
2023/08/11 14:33:41;;;;;;;2.42;1.20;;;23.60;30.50;;;;;;10607336;27;20281;-84
2023/08/11 14:38:44;;;;;;;15.18;2.58;;;23.70;27.10;;;;;;10601248;27;20305;-84
2023/08/11 14:43:47;;;;;;;2.42;1.90;;;23.70;26.20;;;;;;10562723;28;20232;-83
2023/08/11 14:48:49;;;;;;;3.05;2.30;;;23.70;28.60;;;;;;10581100;28;20298;-84
2023/08/11 14:53:52;;;;;;;4.25;2.05;;;23.70;26.50;;;;;;10580518;28;20729;-84
2023/08/11 14:58:55;;;;;;;5.38;2.42;;;23.70;26.50;;;;;;10563211;28;20271;-83
2023/08/11 15:03:57;;;;;;;4.78;2.47;;;23.60;24.60;;;;;;10578118;28;20236;-84
2023/08/11 15:09:00;;;;;;;2.03;1.63;;;23.70;25.70;;;;;;10562278;28;20309;-84
2023/08/11 15:14:03;;;;;;;5.45;2.08;;;23.60;25.10;;;;;;10561737;28;20610;-83
2023/08/11 15:19:05;;;;;;;2.78;1.90;;;23.60;26.10;;;;;;10610635;27;20702;-84
2023/08/11 15:24:08;;;;;;;10.32;2.40;;;23.50;26.40;;;;;;10584645;27;20679;-83
2023/08/11 15:29:11;;;;;;;3.83;1.95;;;23.40;27.40;;;;;;10544552;28;20370;-84
2023/08/11 15:34:13;;;;;;;3.85;1.90;;;23.40;27.10;;;;;;10554929;28;20232;-84
2023/08/11 15:39:16;;;;;;;4.70;2.17;;;23.40;25.10;;;;;;10599266;27;20259;-87
2023/08/11 15:44:18;;;;;;;1.48;1.33;;;23.40;27.60;;;;;;10607663;27;20261;-85
2023/08/11 15:49:23;;;;;;;4.03;2.05;;;23.30;26.30;;;;;;10596392;27;20232;-86
2023/08/11 15:54:26;;;;;;;1.80;1.63;;;23.30;26.20;;;;;;10578380;28;20246;-85
2023/08/11 15:59:28;;;;;;;9.88;2.78;;;23.20;26.10;;;;;;10575952;28;20248;-86
2023/08/11 16:04:31;;;;;;;2.10;1.90;;;23.20;28.40;;;;;;10578113;28;20232;-85
2023/08/11 16:09:33;;;;;;;6.03;2.13;;;23.10;27.00;;;;;;10596231;27;20317;-85
2023/08/11 16:14:36;;;;;;;2.45;2.22;;;23.00;27.70;;;;;;10615682;27;20236;-85
2023/08/11 16:19:38;;;;;;;3.20;1.70;;;23.00;31.10;;;;;;10600512;27;20252;-86
2023/08/11 16:24:41;;;;;;;7.32;2.53;;;23.00;35.60;;;;;;10596037;27;20233;-86
2023/08/11 16:29:44;;;;;;;2.42;1.67;;;22.90;32.90;;;;;;10590422;27;20687;-86
2023/08/11 16:34:46;;;;;;;2.58;1.80;;;22.80;37.00;;;;;;10584686;27;20232;-84
2023/08/11 16:39:50;;;;;;;4.38;2.88;;;22.70;29.70;;;;;;10580815;27;20252;-85
2023/08/11 16:44:52;;;;;;;3.90;2.10;;;22.70;30.00;;;;;;10575158;28;20220;-84
2023/08/11 16:49:54;;;;;;;4.50;2.42;;;22.80;29.30;;;;;;10597556;27;20734;-86
2023/08/11 16:54:58;;;;;;;5.85;2.17;;;22.80;29.10;;;;;;10557569;28;20287;-86
2023/08/11 17:00:00;;;;;;;5.43;1.63;;;23.00;28.90;;;;;;10541740;28;20309;-85
2023/08/11 17:05:03;;;;;;;5.95;2.20;;;23.00;32.60;;;;;;10569065;27;20229;-85
2023/08/11 17:10:06;;;;;;;5.10;2.40;;;22.90;31.80;;;;;;10559187;28;20664;-86
2023/08/11 17:15:10;;;;;;;3.85;2.10;;;22.80;33.40;;;;;;10561170;28;20241;-86
2023/08/11 17:20:15;;;;;;;1.85;1.40;;;22.70;31.30;;;;;;10579591;27;20264;-85
2023/08/11 17:25:18;;;;;;;6.65;2.45;;;22.60;33.00;;;;;;10574354;28;20277;-86
2023/08/11 17:30:20;;;;;;;2.97;1.95;;;22.50;42.00;;;;;;10568639;28;20245;-84
2023/08/11 17:35:23;;;;;;;3.95;2.60;;;22.20;36.20;;;;;;10584025;27;20229;-84
2023/08/11 17:40:25;;;;;;;5.50;2.35;;;22.00;43.40;;;;;;10584905;27;20306;-84
2023/08/11 17:45:28;;;;;;;10.93;2.35;;;21.70;50.90;;;;;;10573205;28;20228;-83
2023/08/11 17:50:31;;;;;;;5.25;2.80;;;21.40;57.10;;;;;;10561813;28;20224;-84
2023/08/11 17:55:33;;;;;;;7.75;2.55;;;21.00;68.30;;;;;;10530857;28;20237;-85
2023/08/11 18:00:36;;;;;;;12.07;3.28;;;20.50;78.30;;;;;;10551507;28;20249;-83
2023/08/11 18:05:39;;;;;;;5.45;2.53;;;20.20;92.00;;;;;;10574286;28;20281;-81
2023/08/11 18:10:41;;;;;;;4.43;2.97;;;19.70;93.20;;;;;;10556732;28;20786;-82
2023/08/11 18:15:45;;;;;;;5.72;3.13;;;19.30;94.00;;;;;;10563269;28;20285;-84
2023/08/11 18:20:48;;;;;;;12.85;3.35;;;19.10;95.20;;;;;;10573468;28;20883;-84
2023/08/11 18:25:50;;;;;;;6.65;2.45;;;18.80;96.00;;;;;;10574389;28;20607;-83
2023/08/11 18:30:59;;;;;;;5.13;2.60;;;18.60;96.20;;;;;;10574256;28;20254;-84
2023/08/11 18:36:01;;;;;;;27.00;4.32;;;18.40;97.80;;;;;;10573498;28;20667;-84
2023/08/11 18:41:04;;;;;;;6.68;3.15;;;18.20;98.10;;;;;;10556338;28;20310;-85
2023/08/11 18:46:07;;;;;;;8.60;3.35;;;18.00;99.00;;;;;;10573699;28;20221;-84
2023/08/11 18:51:09;;;;;;;6.47;3.17;;;17.80;99.90;;;;;;10572845;27;20289;-82
2023/08/11 18:56:12;;;;;;;4.75;3.78;;;17.60;99.90;;;;;;10580834;28;20236;-87
2023/08/11 19:01:14;;;;;;;14.70;4.65;;;17.30;99.90;;;;;;10589004;27;20252;-86
2023/08/11 19:06:17;;;;;;;29.52;6.68;;;17.20;99.90;;;;;;10575515;28;20659;-86
2023/08/11 19:11:22;;;;;;;12.38;6.32;;;17.00;99.90;;;;;;10561822;28;20260;-87
2023/08/11 19:16:25;;;;;;;21.98;8.65;;;16.90;99.90;;;;;;10603723;27;20289;-87
2023/08/11 19:21:28;;;;;;;19.25;6.22;;;16.80;99.90;;;;;;10583488;27;20253;-84
2023/08/11 19:26:31;;;;;;;21.27;5.85;;;16.60;99.90;;;;;;10576798;28;20226;-85
2023/08/11 19:31:33;;;;;;;14.07;5.78;;;16.50;99.90;;;;;;10572253;27;20271;-84
2023/08/11 19:36:38;;;;;;;11.75;5.93;;;16.40;99.90;;;;;;10600230;27;20637;-84
2023/08/11 19:41:42;;;;;;;15.90;5.95;;;16.30;99.90;;;;;;10601760;27;20676;-84
2023/08/11 19:46:44;;;;;;;22.95;11.55;;;16.10;99.90;;;;;;10608905;27;20232;-85
2023/08/11 19:51:47;;;;;;;12.10;9.77;;;16.00;99.90;;;;;;10555100;27;20236;-84
2023/08/11 19:56:49;;;;;;;18.90;10.90;;;15.80;99.90;;;;;;10570942;28;20204;-85
2023/08/11 20:01:52;;;;;;;8.85;7.57;;;15.90;99.90;;;;;;10546504;28;20705;-85
2023/08/11 20:06:54;;;;;;;10.98;7.45;;;15.70;99.90;;;;;;10575681;27;20283;-86
2023/08/11 20:11:57;;;;;;;19.10;10.80;;;15.80;99.90;;;;;;10560359;27;20232;-84
2023/08/11 20:17:02;;;;;;;19.75;8.20;;;15.60;99.90;;;;;;10591299;27;20229;-83
2023/08/11 20:22:04;;;;;;;20.35;7.10;;;15.30;99.90;;;;;;10560151;28;20294;-88
2023/08/11 20:27:07;;;;;;;5.75;4.45;;;15.30;99.90;;;;;;10536099;27;20283;-88
2023/08/11 20:32:10;;;;;;;6.70;4.60;;;15.30;99.90;;;;;;10544713;27;20229;-87
2023/08/11 20:37:13;;;;;;;7.93;4.32;;;15.30;99.90;;;;;;10534443;28;20236;-85
2023/08/11 20:42:16;;;;;;;15.50;6.57;;;15.30;99.90;;;;;;10567717;27;20748;-86
2023/08/11 20:47:23;;;;;;;16.77;5.03;;;15.20;99.90;;;;;;10545781;28;20237;-85
2023/08/11 20:52:26;;;;;;;17.20;5.43;;;15.10;99.90;;;;;;10570267;27;20590;-85
2023/08/11 20:57:29;;;;;;;14.80;5.32;;;15.00;99.90;;;;;;10576280;27;20236;-85
2023/08/11 21:02:31;;;;;;;17.50;5.00;;;14.90;99.90;;;;;;10604743;27;20248;-84
2023/08/11 21:07:34;;;;;;;11.82;3.90;;;14.80;99.90;;;;;;10591846;27;20253;-88
2023/08/11 21:12:36;;;;;;;13.55;5.45;;;14.80;99.90;;;;;;10574191;28;20232;-85
2023/08/11 21:17:39;;;;;;;6.68;4.93;;;14.70;99.90;;;;;;10590469;27;20714;-86
2023/08/11 21:22:42;;;;;;;5.28;3.50;;;14.50;99.90;;;;;;10526956;27;20254;-86
2023/08/11 21:27:44;;;;;;;12.30;6.82;;;14.40;99.90;;;;;;10540368;28;20676;-86
2023/08/11 21:32:49;;;;;;;17.40;6.22;;;14.40;99.90;;;;;;10599100;27;20228;-87
2023/08/11 21:37:51;;;;;;;6.82;4.60;;;14.30;99.90;;;;;;10579062;27;20623;-84
2023/08/11 21:42:54;;;;;;;8.35;5.28;;;14.20;99.90;;;;;;10539664;28;20248;-86
2023/08/11 21:47:57;;;;;;;5.72;3.67;;;14.20;99.90;;;;;;10558083;27;20224;-85
2023/08/11 21:52:59;;;;;;;8.23;5.65;;;14.20;99.90;;;;;;10593205;27;20236;-84
2023/08/11 21:58:22;;;;;;;11.73;5.82;;;14.10;99.90;;;;;;10555253;28;20259;-89
2023/08/11 22:03:25;;;;;;;12.18;5.65;;;14.00;99.90;;;;;;10551329;28;20256;-89
2023/08/11 22:08:28;;;;;;;12.07;5.78;;;13.90;99.90;;;;;;10542611;28;20656;-88
2023/08/11 22:13:30;;;;;;;9.63;5.80;;;13.90;99.90;;;;;;10548112;28;20201;-87
2023/08/11 22:18:33;;;;;;;12.02;5.47;;;14.00;99.90;;;;;;10597806;27;20209;-86
2023/08/11 22:23:36;;;;;;;12.00;6.22;;;13.90;99.90;;;;;;10517341;28;20260;-87
2023/08/11 22:28:38;;;;;;;5.75;5.20;;;13.80;99.90;;;;;;10532388;28;20287;-88
2023/08/11 22:33:41;;;;;;;3.28;2.97;;;13.80;99.90;;;;;;10534887;28;20755;-87
2023/08/11 22:38:43;;;;;;;5.32;4.03;;;13.80;99.90;;;;;;10595842;27;20622;-88
2023/08/11 22:43:46;;;;;;;10.80;5.50;;;13.90;99.90;;;;;;10581629;28;20641;-88
2023/08/11 22:48:48;;;;;;;6.13;5.63;;;13.70;99.90;;;;;;10556856;28;20233;-87
2023/08/11 22:53:51;;;;;;;10.65;5.72;;;13.60;99.90;;;;;;10572782;27;20251;-88
2023/08/11 22:58:54;;;;;;;10.65;7.32;;;13.60;99.90;;;;;;10558917;28;20602;-85
2023/08/11 23:03:56;;;;;;;11.38;7.38;;;13.50;99.90;;;;;;10591638;27;20679;-84
2023/08/11 23:08:59;;;;;;;6.57;5.88;;;13.50;99.90;;;;;;10606367;27;20252;-86
2023/08/11 23:14:01;;;;;;;8.50;6.18;;;13.50;99.90;;;;;;10580323;27;20274;-85
2023/08/11 23:19:05;;;;;;;7.07;5.28;;;13.40;99.90;;;;;;10558769;27;20559;-85
2023/08/11 23:24:08;;;;;;;7.28;6.18;;;13.40;99.90;;;;;;10598526;27;20313;-85
2023/08/11 23:29:11;;;;;;;9.98;6.57;;;13.30;99.90;;;;;;10579784;27;20227;-85
2023/08/11 23:34:13;;;;;;;12.60;7.57;;;13.20;99.90;;;;;;10584796;27;20232;-85
2023/08/11 23:39:16;;;;;;;6.50;5.93;;;13.20;99.90;;;;;;10599344;27;20332;-85
2023/08/11 23:44:19;;;;;;;5.50;4.75;;;13.20;99.90;;;;;;10568828;27;20255;-85
2023/08/11 23:49:21;;;;;;;5.82;5.30;;;13.30;99.90;;;;;;10581982;27;20297;-85
2023/08/11 23:54:24;;;;;;;7.32;5.85;;;13.10;99.90;;;;;;10557031;28;20289;-85
2023/08/11 23:59:26;;;;;;;7.05;5.38;;;13.10;99.90;;;;;;10576564;28;20228;-85
